Hovedside
METAR-TAF:

METAR-TAF

Lufthavner :

NWS Office

Majuro, Marshalløyene

breddegrad: 07-05N, lengdegrad: 171-12E, høyde over havet: 4 m

Gjeldene værobservasjon

Denne rapporten ble laget for 40 minutter siden, klokken 11:53 UTC
Vind 16 kt fra Øst-nordøst
Temperatur 28°C
Luftfuktighet 84%
Trykk 1011 hPa
Sikt: 24.1 km
Få skyer i en høyde av 1500 ft
Få skyer i en høyde av 5000 ft
Brutte skyer i en høyde av 30000 ft

METAR: PKMR 281153Z 06016KT 15SM FEW015 FEW050 BKN300 28/25 A2985 RMK SLP108 8/801 T02790251 10286 20275 58002

Tid: 00:33 (12:33 UTC)


TAF: fraværende

Værobservasjoner og værvarsel for over 4000 flyplasser (METAR- og TAF-rapporter).

Tilgjengelige stasjoner er representert av de røde og gule prikkene på kartet.

Hold musepekeren over prikken for å se navnet på stasjonen.

Klikk så for å se værobservasjoner og -varsler.

For å forandre kartet kan du klikke på den grønne knappen med svart kryss for å zoome inn, på den grønne knappen med strek for å zoome ut, eller på de grønne pilene for å se tilstøtende kart.


METAR-TAF: